sensor_id;sensor_type;location;lat;lon;timestamp;P1;durP1;ratioP1;P2;durP2;ratioP2
41512;SDS011;27244;59.940;30.280;2023-07-20T00:01:47;2.22;;;0.90;;
41512;SDS011;27244;59.940;30.280;2023-07-20T00:04:16;2.30;;;0.88;;
41512;SDS011;27244;59.940;30.280;2023-07-20T00:06:43;1.38;;;0.70;;
41512;SDS011;27244;59.940;30.280;2023-07-20T00:09:10;2.15;;;0.85;;
41512;SDS011;27244;59.940;30.280;2023-07-20T00:11:37;1.98;;;0.65;;
41512;SDS011;27244;59.940;30.280;2023-07-20T00:14:05;2.15;;;0.80;;
41512;SDS011;27244;59.940;30.280;2023-07-20T00:16:33;2.08;;;0.80;;
41512;SDS011;27244;59.940;30.280;2023-07-20T00:19:00;3.22;;;1.05;;
41512;SDS011;27244;59.940;30.280;2023-07-20T00:21:28;3.58;;;0.90;;
41512;SDS011;27244;59.940;30.280;2023-07-20T00:23:55;2.28;;;0.70;;
41512;SDS011;27244;59.940;30.280;2023-07-20T00:26:23;3.15;;;1.38;;
41512;SDS011;27244;59.940;30.280;2023-07-20T00:28:50;1.88;;;0.80;;
41512;SDS011;27244;59.940;30.280;2023-07-20T00:31:18;3.17;;;0.80;;
41512;SDS011;27244;59.940;30.280;2023-07-20T00:33:45;2.15;;;0.77;;
41512;SDS011;27244;59.940;30.280;2023-07-20T00:36:12;2.30;;;0.73;;
41512;SDS011;27244;59.940;30.280;2023-07-20T00:38:43;2.40;;;1.17;;
41512;SDS011;27244;59.940;30.280;2023-07-20T00:41:10;1.42;;;0.55;;
41512;SDS011;27244;59.940;30.280;2023-07-20T00:43:39;2.47;;;1.05;;
41512;SDS011;27244;59.940;30.280;2023-07-20T00:46:07;3.72;;;1.42;;
41512;SDS011;27244;59.940;30.280;2023-07-20T00:48:35;2.17;;;0.98;;
41512;SDS011;27244;59.940;30.280;2023-07-20T00:51:02;1.83;;;0.85;;
41512;SDS011;27244;59.940;30.280;2023-07-20T00:53:29;2.38;;;0.63;;
41512;SDS011;27244;59.940;30.280;2023-07-20T00:55:58;2.30;;;0.93;;
41512;SDS011;27244;59.940;30.280;2023-07-20T00:58:26;2.00;;;0.82;;
41512;SDS011;27244;59.940;30.280;2023-07-20T01:00:54;3.28;;;0.80;;
41512;SDS011;27244;59.940;30.280;2023-07-20T01:03:21;1.20;;;0.70;;
41512;SDS011;27244;59.940;30.280;2023-07-20T01:05:51;2.90;;;0.70;;
41512;SDS011;27244;59.940;30.280;2023-07-20T01:08:28;1.80;;;0.60;;
41512;SDS011;27244;59.940;30.280;2023-07-20T01:11:04;3.75;;;0.85;;
41512;SDS011;27244;59.940;30.280;2023-07-20T01:13:37;2.03;;;0.70;;
41512;SDS011;27244;59.940;30.280;2023-07-20T01:16:05;2.30;;;0.75;;
41512;SDS011;27244;59.940;30.280;2023-07-20T01:18:32;2.90;;;0.93;;
41512;SDS011;27244;59.940;30.280;2023-07-20T01:21:01;2.60;;;0.88;;
41512;SDS011;27244;59.940;30.280;2023-07-20T01:23:41;2.33;;;0.63;;
41512;SDS011;27244;59.940;30.280;2023-07-20T01:26:35;3.30;;;0.77;;
41512;SDS011;27244;59.940;30.280;2023-07-20T01:29:17;1.98;;;1.05;;
41512;SDS011;27244;59.940;30.280;2023-07-20T01:32:00;1.67;;;0.73;;
41512;SDS011;27244;59.940;30.280;2023-07-20T01:34:30;2.17;;;0.82;;
41512;SDS011;27244;59.940;30.280;2023-07-20T01:36:58;1.67;;;0.73;;
41512;SDS011;27244;59.940;30.280;2023-07-20T01:39:27;2.17;;;0.93;;
41512;SDS011;27244;59.940;30.280;2023-07-20T01:41:54;2.78;;;1.13;;
41512;SDS011;27244;59.940;30.280;2023-07-20T01:44:22;2.17;;;1.15;;
41512;SDS011;27244;59.940;30.280;2023-07-20T01:46:49;2.03;;;0.98;;
41512;SDS011;27244;59.940;30.280;2023-07-20T01:49:17;1.48;;;0.70;;
41512;SDS011;27244;59.940;30.280;2023-07-20T01:51:44;3.65;;;1.13;;
41512;SDS011;27244;59.940;30.280;2023-07-20T01:54:11;1.75;;;0.70;;
41512;SDS011;27244;59.940;30.280;2023-07-20T01:56:40;2.50;;;0.80;;
41512;SDS011;27244;59.940;30.280;2023-07-20T01:59:07;1.30;;;0.68;;
41512;SDS011;27244;59.940;30.280;2023-07-20T02:01:34;1.15;;;0.65;;
41512;SDS011;27244;59.940;30.280;2023-07-20T02:04:01;2.22;;;0.77;;
41512;SDS011;27244;59.940;30.280;2023-07-20T02:06:30;2.22;;;0.80;;
41512;SDS011;27244;59.940;30.280;2023-07-20T02:08:57;3.53;;;1.05;;
41512;SDS011;27244;59.940;30.280;2023-07-20T02:11:24;2.65;;;0.80;;
41512;SDS011;27244;59.940;30.280;2023-07-20T02:13:51;5.32;;;1.10;;
41512;SDS011;27244;59.940;30.280;2023-07-20T02:16:18;2.58;;;0.90;;
41512;SDS011;27244;59.940;30.280;2023-07-20T02:18:46;2.92;;;0.85;;
41512;SDS011;27244;59.940;30.280;2023-07-20T02:21:13;1.63;;;0.85;;
41512;SDS011;27244;59.940;30.280;2023-07-20T02:23:41;2.17;;;0.80;;
41512;SDS011;27244;59.940;30.280;2023-07-20T02:26:08;3.13;;;0.90;;
41512;SDS011;27244;59.940;30.280;2023-07-20T02:28:35;2.15;;;1.10;;
41512;SDS011;27244;59.940;30.280;2023-07-20T02:31:02;2.67;;;0.98;;
41512;SDS011;27244;59.940;30.280;2023-07-20T02:33:30;2.30;;;1.20;;
41512;SDS011;27244;59.940;30.280;2023-07-20T02:35:57;2.05;;;1.00;;
41512;SDS011;27244;59.940;30.280;2023-07-20T02:38:24;3.13;;;0.80;;
41512;SDS011;27244;59.940;30.280;2023-07-20T02:40:52;3.03;;;1.20;;
41512;SDS011;27244;59.940;30.280;2023-07-20T02:43:19;2.65;;;0.85;;
41512;SDS011;27244;59.940;30.280;2023-07-20T02:45:47;1.60;;;0.70;;
41512;SDS011;27244;59.940;30.280;2023-07-20T02:48:14;5.70;;;1.77;;
41512;SDS011;27244;59.940;30.280;2023-07-20T02:50:43;1.80;;;0.70;;
41512;SDS011;27244;59.940;30.280;2023-07-20T02:53:10;2.78;;;0.85;;
41512;SDS011;27244;59.940;30.280;2023-07-20T02:55:38;3.78;;;1.20;;
41512;SDS011;27244;59.940;30.280;2023-07-20T02:58:06;6.15;;;1.73;;
41512;SDS011;27244;59.940;30.280;2023-07-20T03:00:33;3.55;;;1.10;;
41512;SDS011;27244;59.940;30.280;2023-07-20T03:03:00;3.13;;;1.27;;
41512;SDS011;27244;59.940;30.280;2023-07-20T03:05:27;1.50;;;0.60;;
41512;SDS011;27244;59.940;30.280;2023-07-20T03:07:55;1.88;;;0.90;;
41512;SDS011;27244;59.940;30.280;2023-07-20T03:10:22;4.38;;;1.10;;
41512;SDS011;27244;59.940;30.280;2023-07-20T03:12:49;3.08;;;1.17;;
41512;SDS011;27244;59.940;30.280;2023-07-20T03:15:17;2.13;;;0.95;;
41512;SDS011;27244;59.940;30.280;2023-07-20T03:17:44;1.45;;;0.70;;
41512;SDS011;27244;59.940;30.280;2023-07-20T03:20:11;3.03;;;0.90;;
41512;SDS011;27244;59.940;30.280;2023-07-20T03:22:39;1.75;;;0.80;;
41512;SDS011;27244;59.940;30.280;2023-07-20T03:25:07;1.58;;;0.70;;
41512;SDS011;27244;59.940;30.280;2023-07-20T03:27:34;1.73;;;0.80;;
41512;SDS011;27244;59.940;30.280;2023-07-20T03:30:02;3.30;;;0.70;;
41512;SDS011;27244;59.940;30.280;2023-07-20T03:32:31;2.60;;;0.80;;
41512;SDS011;27244;59.940;30.280;2023-07-20T03:34:58;1.80;;;0.75;;
41512;SDS011;27244;59.940;30.280;2023-07-20T03:37:25;3.42;;;0.82;;
41512;SDS011;27244;59.940;30.280;2023-07-20T03:39:52;1.88;;;0.80;;
41512;SDS011;27244;59.940;30.280;2023-07-20T03:42:19;2.85;;;0.90;;
41512;SDS011;27244;59.940;30.280;2023-07-20T03:44:46;2.83;;;0.85;;
41512;SDS011;27244;59.940;30.280;2023-07-20T03:47:13;5.18;;;0.93;;
41512;SDS011;27244;59.940;30.280;2023-07-20T03:49:42;3.28;;;0.90;;
41512;SDS011;27244;59.940;30.280;2023-07-20T03:52:09;3.97;;;0.80;;
41512;SDS011;27244;59.940;30.280;2023-07-20T03:54:36;2.85;;;0.88;;
41512;SDS011;27244;59.940;30.280;2023-07-20T03:57:03;3.05;;;0.80;;
41512;SDS011;27244;59.940;30.280;2023-07-20T03:59:30;2.17;;;0.90;;
41512;SDS011;27244;59.940;30.280;2023-07-20T04:01:59;1.90;;;0.90;;
41512;SDS011;27244;59.940;30.280;2023-07-20T04:04:26;3.00;;;0.90;;
41512;SDS011;27244;59.940;30.280;2023-07-20T04:06:56;2.47;;;0.82;;
41512;SDS011;27244;59.940;30.280;2023-07-20T04:09:23;3.58;;;1.08;;
41512;SDS011;27244;59.940;30.280;2023-07-20T04:11:50;1.80;;;1.05;;
41512;SDS011;27244;59.940;30.280;2023-07-20T04:14:17;4.32;;;1.20;;
41512;SDS011;27244;59.940;30.280;2023-07-20T04:16:45;4.65;;;1.00;;
41512;SDS011;27244;59.940;30.280;2023-07-20T04:19:13;2.55;;;0.95;;
41512;SDS011;27244;59.940;30.280;2023-07-20T04:21:40;4.25;;;1.30;;
41512;SDS011;27244;59.940;30.280;2023-07-20T04:24:09;2.97;;;1.13;;
41512;SDS011;27244;59.940;30.280;2023-07-20T04:26:36;2.58;;;1.30;;
41512;SDS011;27244;59.940;30.280;2023-07-20T04:29:03;2.80;;;0.90;;
41512;SDS011;27244;59.940;30.280;2023-07-20T04:31:36;2.95;;;0.75;;
41512;SDS011;27244;59.940;30.280;2023-07-20T04:34:03;4.38;;;1.30;;
41512;SDS011;27244;59.940;30.280;2023-07-20T04:36:32;2.65;;;1.00;;
41512;SDS011;27244;59.940;30.280;2023-07-20T04:38:59;3.22;;;1.05;;
41512;SDS011;27244;59.940;30.280;2023-07-20T04:41:34;4.40;;;1.00;;
41512;SDS011;27244;59.940;30.280;2023-07-20T04:44:01;2.50;;;0.95;;
41512;SDS011;27244;59.940;30.280;2023-07-20T04:46:30;2.63;;;0.90;;
41512;SDS011;27244;59.940;30.280;2023-07-20T04:49:00;2.33;;;1.00;;
41512;SDS011;27244;59.940;30.280;2023-07-20T04:51:31;2.53;;;0.90;;
41512;SDS011;27244;59.940;30.280;2023-07-20T04:53:58;3.42;;;0.90;;
41512;SDS011;27244;59.940;30.280;2023-07-20T04:58:58;2.60;;;1.02;;
41512;SDS011;27244;59.940;30.280;2023-07-20T05:01:26;2.58;;;0.93;;
41512;SDS011;27244;59.940;30.280;2023-07-20T05:03:53;2.90;;;1.00;;
41512;SDS011;27244;59.940;30.280;2023-07-20T05:06:20;1.92;;;0.75;;
41512;SDS011;27244;59.940;30.280;2023-07-20T05:08:47;2.50;;;1.35;;
41512;SDS011;27244;59.940;30.280;2023-07-20T05:11:14;3.33;;;1.50;;
41512;SDS011;27244;59.940;30.280;2023-07-20T05:13:41;1.52;;;0.70;;
41512;SDS011;27244;59.940;30.280;2023-07-20T05:16:10;3.50;;;1.10;;
41512;SDS011;27244;59.940;30.280;2023-07-20T05:18:37;1.85;;;0.65;;
41512;SDS011;27244;59.940;30.280;2023-07-20T05:21:05;2.05;;;0.85;;
41512;SDS011;27244;59.940;30.280;2023-07-20T05:23:32;3.83;;;1.58;;
41512;SDS011;27244;59.940;30.280;2023-07-20T05:26:00;2.65;;;0.70;;
41512;SDS011;27244;59.940;30.280;2023-07-20T05:28:27;2.83;;;0.80;;
41512;SDS011;27244;59.940;30.280;2023-07-20T05:30:55;2.63;;;0.85;;
41512;SDS011;27244;59.940;30.280;2023-07-20T05:33:26;3.47;;;1.25;;
41512;SDS011;27244;59.940;30.280;2023-07-20T05:35:53;2.00;;;0.75;;
41512;SDS011;27244;59.940;30.280;2023-07-20T05:38:20;2.97;;;0.93;;
41512;SDS011;27244;59.940;30.280;2023-07-20T05:40:47;2.85;;;1.05;;
41512;SDS011;27244;59.940;30.280;2023-07-20T05:43:14;2.15;;;0.90;;
41512;SDS011;27244;59.940;30.280;2023-07-20T05:45:41;2.47;;;0.85;;
41512;SDS011;27244;59.940;30.280;2023-07-20T05:48:08;2.60;;;1.00;;
41512;SDS011;27244;59.940;30.280;2023-07-20T05:50:38;2.13;;;0.77;;
41512;SDS011;27244;59.940;30.280;2023-07-20T05:53:08;2.25;;;0.93;;
41512;SDS011;27244;59.940;30.280;2023-07-20T05:55:35;2.10;;;0.90;;
41512;SDS011;27244;59.940;30.280;2023-07-20T05:58:02;2.08;;;0.90;;
41512;SDS011;27244;59.940;30.280;2023-07-20T06:00:29;3.08;;;0.90;;
41512;SDS011;27244;59.940;30.280;2023-07-20T06:02:56;1.50;;;0.73;;
41512;SDS011;27244;59.940;30.280;2023-07-20T06:05:23;3.90;;;1.00;;
41512;SDS011;27244;59.940;30.280;2023-07-20T06:07:52;2.08;;;0.90;;
41512;SDS011;27244;59.940;30.280;2023-07-20T06:10:19;3.75;;;0.85;;
41512;SDS011;27244;59.940;30.280;2023-07-20T06:12:47;3.28;;;1.05;;
41512;SDS011;27244;59.940;30.280;2023-07-20T06:15:26;5.22;;;1.00;;
41512;SDS011;27244;59.940;30.280;2023-07-20T06:17:55;3.95;;;0.90;;
41512;SDS011;27244;59.940;30.280;2023-07-20T06:20:23;6.03;;;1.25;;
41512;SDS011;27244;59.940;30.280;2023-07-20T06:22:50;5.13;;;1.10;;
41512;SDS011;27244;59.940;30.280;2023-07-20T06:25:19;7.90;;;1.50;;
41512;SDS011;27244;59.940;30.280;2023-07-20T06:27:46;9.13;;;2.17;;
41512;SDS011;27244;59.940;30.280;2023-07-20T06:30:15;6.05;;;1.95;;
41512;SDS011;27244;59.940;30.280;2023-07-20T06:32:42;7.82;;;1.33;;
41512;SDS011;27244;59.940;30.280;2023-07-20T06:35:09;4.63;;;0.98;;
41512;SDS011;27244;59.940;30.280;2023-07-20T06:37:36;3.45;;;1.02;;
41512;SDS011;27244;59.940;30.280;2023-07-20T06:40:03;3.25;;;1.20;;
41512;SDS011;27244;59.940;30.280;2023-07-20T06:42:35;2.50;;;0.80;;
41512;SDS011;27244;59.940;30.280;2023-07-20T06:45:02;3.15;;;1.15;;
41512;SDS011;27244;59.940;30.280;2023-07-20T06:47:30;4.10;;;1.00;;
41512;SDS011;27244;59.940;30.280;2023-07-20T06:49:57;3.05;;;0.90;;
41512;SDS011;27244;59.940;30.280;2023-07-20T06:52:24;2.20;;;0.90;;
41512;SDS011;27244;59.940;30.280;2023-07-20T06:54:51;3.00;;;1.08;;
41512;SDS011;27244;59.940;30.280;2023-07-20T06:57:18;4.25;;;0.70;;
41512;SDS011;27244;59.940;30.280;2023-07-20T06:59:47;7.07;;;1.25;;
41512;SDS011;27244;59.940;30.280;2023-07-20T07:02:14;2.55;;;0.90;;
41512;SDS011;27244;59.940;30.280;2023-07-20T07:04:41;2.90;;;1.00;;
41512;SDS011;27244;59.940;30.280;2023-07-20T07:07:08;3.22;;;1.00;;
41512;SDS011;27244;59.940;30.280;2023-07-20T07:09:35;3.35;;;1.45;;
41512;SDS011;27244;59.940;30.280;2023-07-20T07:12:03;3.25;;;0.82;;
41512;SDS011;27244;59.940;30.280;2023-07-20T07:14:30;2.55;;;0.60;;
41512;SDS011;27244;59.940;30.280;2023-07-20T07:16:59;2.58;;;0.98;;
41512;SDS011;27244;59.940;30.280;2023-07-20T07:19:26;2.85;;;0.90;;
41512;SDS011;27244;59.940;30.280;2023-07-20T07:21:53;2.60;;;0.68;;
41512;SDS011;27244;59.940;30.280;2023-07-20T07:24:20;1.73;;;1.00;;
41512;SDS011;27244;59.940;30.280;2023-07-20T07:26:47;3.22;;;1.00;;
41512;SDS011;27244;59.940;30.280;2023-07-20T07:29:14;3.63;;;1.00;;
41512;SDS011;27244;59.940;30.280;2023-07-20T07:31:41;2.10;;;0.90;;
41512;SDS011;27244;59.940;30.280;2023-07-20T07:34:09;1.60;;;0.70;;
41512;SDS011;27244;59.940;30.280;2023-07-20T07:36:36;3.47;;;1.10;;
41512;SDS011;27244;59.940;30.280;2023-07-20T07:39:04;5.70;;;1.48;;
41512;SDS011;27244;59.940;30.280;2023-07-20T07:41:31;2.33;;;1.00;;
41512;SDS011;27244;59.940;30.280;2023-07-20T07:43:58;1.50;;;0.90;;
41512;SDS011;27244;59.940;30.280;2023-07-20T07:46:25;3.10;;;1.10;;
41512;SDS011;27244;59.940;30.280;2023-07-20T07:48:52;1.48;;;0.77;;
41512;SDS011;27244;59.940;30.280;2023-07-20T07:51:23;2.03;;;0.90;;
41512;SDS011;27244;59.940;30.280;2023-07-20T07:53:52;2.47;;;1.00;;
41512;SDS011;27244;59.940;30.280;2023-07-20T07:56:19;2.03;;;1.00;;
41512;SDS011;27244;59.940;30.280;2023-07-20T07:58:48;2.33;;;0.82;;
41512;SDS011;27244;59.940;30.280;2023-07-20T08:01:16;1.88;;;0.80;;
41512;SDS011;27244;59.940;30.280;2023-07-20T08:03:44;2.50;;;0.80;;
41512;SDS011;27244;59.940;30.280;2023-07-20T08:06:12;2.53;;;1.00;;
41512;SDS011;27244;59.940;30.280;2023-07-20T08:08:41;2.20;;;0.90;;
41512;SDS011;27244;59.940;30.280;2023-07-20T08:11:08;1.55;;;1.00;;
41512;SDS011;27244;59.940;30.280;2023-07-20T08:13:36;2.30;;;0.90;;
41512;SDS011;27244;59.940;30.280;2023-07-20T08:16:03;2.15;;;1.08;;
41512;SDS011;27244;59.940;30.280;2023-07-20T08:18:30;2.13;;;0.85;;
41512;SDS011;27244;59.940;30.280;2023-07-20T08:20:57;1.58;;;0.80;;
41512;SDS011;27244;59.940;30.280;2023-07-20T08:23:24;2.85;;;1.02;;
41512;SDS011;27244;59.940;30.280;2023-07-20T08:25:54;2.38;;;1.00;;
41512;SDS011;27244;59.940;30.280;2023-07-20T08:28:21;1.70;;;0.70;;
41512;SDS011;27244;59.940;30.280;2023-07-20T08:30:48;2.25;;;0.80;;
41512;SDS011;27244;59.940;30.280;2023-07-20T08:33:16;1.17;;;0.77;;
41512;SDS011;27244;59.940;30.280;2023-07-20T08:35:45;2.08;;;0.95;;
41512;SDS011;27244;59.940;30.280;2023-07-20T08:38:12;1.92;;;1.00;;
41512;SDS011;27244;59.940;30.280;2023-07-20T08:40:40;1.73;;;0.90;;
41512;SDS011;27244;59.940;30.280;2023-07-20T08:43:13;1.33;;;0.82;;
41512;SDS011;27244;59.940;30.280;2023-07-20T08:45:42;2.10;;;0.95;;
41512;SDS011;27244;59.940;30.280;2023-07-20T08:48:11;2.80;;;1.20;;
41512;SDS011;27244;59.940;30.280;2023-07-20T08:50:39;2.65;;;1.25;;
41512;SDS011;27244;59.940;30.280;2023-07-20T08:53:07;1.48;;;0.75;;
41512;SDS011;27244;59.940;30.280;2023-07-20T08:55:36;4.57;;;0.98;;
41512;SDS011;27244;59.940;30.280;2023-07-20T08:58:04;2.50;;;0.80;;
41512;SDS011;27244;59.940;30.280;2023-07-20T09:00:39;1.73;;;0.80;;
41512;SDS011;27244;59.940;30.280;2023-07-20T09:03:08;1.77;;;0.80;;
41512;SDS011;27244;59.940;30.280;2023-07-20T09:05:36;3.83;;;1.50;;
41512;SDS011;27244;59.940;30.280;2023-07-20T09:08:05;4.55;;;2.10;;
41512;SDS011;27244;59.940;30.280;2023-07-20T09:10:32;4.30;;;2.97;;
41512;SDS011;27244;59.940;30.280;2023-07-20T09:12:59;4.72;;;2.50;;
41512;SDS011;27244;59.940;30.280;2023-07-20T09:15:26;5.22;;;2.55;;
41512;SDS011;27244;59.940;30.280;2023-07-20T09:17:58;3.03;;;2.05;;
41512;SDS011;27244;59.940;30.280;2023-07-20T09:20:30;3.65;;;2.10;;
41512;SDS011;27244;59.940;30.280;2023-07-20T09:22:59;4.43;;;1.98;;
41512;SDS011;27244;59.940;30.280;2023-07-20T09:25:31;4.93;;;1.95;;
41512;SDS011;27244;59.940;30.280;2023-07-20T09:28:01;3.75;;;2.17;;
41512;SDS011;27244;59.940;30.280;2023-07-20T09:30:29;2.33;;;1.48;;
41512;SDS011;27244;59.940;30.280;2023-07-20T09:32:58;4.78;;;1.50;;
41512;SDS011;27244;59.940;30.280;2023-07-20T09:35:25;3.55;;;1.80;;
41512;SDS011;27244;59.940;30.280;2023-07-20T09:37:54;3.67;;;1.45;;
41512;SDS011;27244;59.940;30.280;2023-07-20T09:40:24;3.15;;;1.20;;
41512;SDS011;27244;59.940;30.280;2023-07-20T09:42:51;2.70;;;1.15;;
41512;SDS011;27244;59.940;30.280;2023-07-20T09:45:27;2.78;;;1.58;;
41512;SDS011;27244;59.940;30.280;2023-07-20T09:48:02;5.05;;;1.70;;
41512;SDS011;27244;59.940;30.280;2023-07-20T09:50:29;2.88;;;1.27;;
41512;SDS011;27244;59.940;30.280;2023-07-20T09:52:57;2.60;;;1.65;;
41512;SDS011;27244;59.940;30.280;2023-07-20T09:55:27;3.60;;;1.50;;
41512;SDS011;27244;59.940;30.280;2023-07-20T09:57:55;3.10;;;1.40;;
41512;SDS011;27244;59.940;30.280;2023-07-20T10:00:23;3.00;;;1.50;;
41512;SDS011;27244;59.940;30.280;2023-07-20T10:02:50;2.90;;;1.00;;
41512;SDS011;27244;59.940;30.280;2023-07-20T10:05:20;2.95;;;1.20;;
41512;SDS011;27244;59.940;30.280;2023-07-20T10:07:48;2.63;;;1.30;;
41512;SDS011;27244;59.940;30.280;2023-07-20T10:10:17;3.97;;;1.40;;
41512;SDS011;27244;59.940;30.280;2023-07-20T10:12:46;2.85;;;1.15;;
41512;SDS011;27244;59.940;30.280;2023-07-20T10:15:16;2.25;;;1.27;;
41512;SDS011;27244;59.940;30.280;2023-07-20T10:17:48;2.90;;;1.25;;
41512;SDS011;27244;59.940;30.280;2023-07-20T10:20:24;2.10;;;1.10;;
41512;SDS011;27244;59.940;30.280;2023-07-20T10:22:53;3.40;;;1.13;;
41512;SDS011;27244;59.940;30.280;2023-07-20T10:25:20;2.67;;;1.13;;
41512;SDS011;27244;59.940;30.280;2023-07-20T10:27:49;2.72;;;1.08;;
41512;SDS011;27244;59.940;30.280;2023-07-20T10:30:17;2.63;;;1.10;;
41512;SDS011;27244;59.940;30.280;2023-07-20T10:32:45;1.90;;;1.05;;
41512;SDS011;27244;59.940;30.280;2023-07-20T10:35:14;1.95;;;1.13;;
41512;SDS011;27244;59.940;30.280;2023-07-20T10:37:47;2.58;;;1.33;;
41512;SDS011;27244;59.940;30.280;2023-07-20T10:40:24;2.53;;;1.27;;
41512;SDS011;27244;59.940;30.280;2023-07-20T10:42:56;2.08;;;1.30;;
41512;SDS011;27244;59.940;30.280;2023-07-20T10:48:18;2.42;;;1.20;;
41512;SDS011;27244;59.940;30.280;2023-07-20T10:50:46;2.20;;;1.00;;
41512;SDS011;27244;59.940;30.280;2023-07-20T10:53:29;2.95;;;1.33;;
41512;SDS011;27244;59.940;30.280;2023-07-20T10:56:05;2.13;;;1.10;;
41512;SDS011;27244;59.940;30.280;2023-07-20T10:58:34;2.63;;;1.00;;
41512;SDS011;27244;59.940;30.280;2023-07-20T11:01:01;2.42;;;1.13;;
41512;SDS011;27244;59.940;30.280;2023-07-20T11:03:32;2.90;;;1.23;;
41512;SDS011;27244;59.940;30.280;2023-07-20T11:06:28;3.33;;;1.17;;
41512;SDS011;27244;59.940;30.280;2023-07-20T11:09:04;3.70;;;1.10;;
41512;SDS011;27244;59.940;30.280;2023-07-20T11:11:33;4.15;;;1.20;;
41512;SDS011;27244;59.940;30.280;2023-07-20T11:14:02;2.15;;;0.88;;
41512;SDS011;27244;59.940;30.280;2023-07-20T11:16:40;2.33;;;1.15;;
41512;SDS011;27244;59.940;30.280;2023-07-20T11:19:16;3.50;;;1.45;;
41512;SDS011;27244;59.940;30.280;2023-07-20T11:21:44;2.58;;;1.27;;
41512;SDS011;27244;59.940;30.280;2023-07-20T11:24:13;2.28;;;1.10;;
41512;SDS011;27244;59.940;30.280;2023-07-20T11:26:41;3.67;;;1.33;;
41512;SDS011;27244;59.940;30.280;2023-07-20T11:29:10;3.17;;;0.93;;
41512;SDS011;27244;59.940;30.280;2023-07-20T11:31:37;4.10;;;1.13;;
41512;SDS011;27244;59.940;30.280;2023-07-20T11:34:05;2.47;;;1.10;;
41512;SDS011;27244;59.940;30.280;2023-07-20T11:36:33;2.20;;;0.95;;
41512;SDS011;27244;59.940;30.280;2023-07-20T11:39:00;2.47;;;1.02;;
41512;SDS011;27244;59.940;30.280;2023-07-20T11:41:31;7.05;;;1.90;;
41512;SDS011;27244;59.940;30.280;2023-07-20T11:43:59;3.15;;;1.13;;
41512;SDS011;27244;59.940;30.280;2023-07-20T11:46:27;6.22;;;1.27;;
41512;SDS011;27244;59.940;30.280;2023-07-20T11:48:57;4.35;;;1.17;;
41512;SDS011;27244;59.940;30.280;2023-07-20T11:51:26;3.38;;;1.08;;
41512;SDS011;27244;59.940;30.280;2023-07-20T11:53:55;3.33;;;1.20;;
41512;SDS011;27244;59.940;30.280;2023-07-20T11:56:23;4.95;;;0.95;;
41512;SDS011;27244;59.940;30.280;2023-07-20T11:58:53;3.97;;;1.00;;
41512;SDS011;27244;59.940;30.280;2023-07-20T12:01:21;4.03;;;1.33;;
41512;SDS011;27244;59.940;30.280;2023-07-20T12:03:50;3.20;;;1.00;;
41512;SDS011;27244;59.940;30.280;2023-07-20T12:06:17;2.53;;;1.20;;
41512;SDS011;27244;59.940;30.280;2023-07-20T12:08:44;2.67;;;0.80;;
41512;SDS011;27244;59.940;30.280;2023-07-20T12:11:11;2.97;;;1.13;;
41512;SDS011;27244;59.940;30.280;2023-07-20T12:13:39;3.97;;;1.00;;
41512;SDS011;27244;59.940;30.280;2023-07-20T12:16:11;5.30;;;1.30;;
41512;SDS011;27244;59.940;30.280;2023-07-20T12:18:40;3.08;;;0.93;;
41512;SDS011;27244;59.940;30.280;2023-07-20T12:21:07;1.83;;;0.95;;
41512;SDS011;27244;59.940;30.280;2023-07-20T12:23:35;2.50;;;1.10;;
41512;SDS011;27244;59.940;30.280;2023-07-20T12:26:05;4.05;;;0.90;;
41512;SDS011;27244;59.940;30.280;2023-07-20T12:28:35;1.90;;;0.90;;
41512;SDS011;27244;59.940;30.280;2023-07-20T12:31:06;2.58;;;0.80;;
41512;SDS011;27244;59.940;30.280;2023-07-20T12:33:34;2.47;;;1.00;;
41512;SDS011;27244;59.940;30.280;2023-07-20T12:36:02;3.13;;;0.90;;
41512;SDS011;27244;59.940;30.280;2023-07-20T12:38:29;2.78;;;1.00;;
41512;SDS011;27244;59.940;30.280;2023-07-20T12:40:57;2.38;;;0.85;;
41512;SDS011;27244;59.940;30.280;2023-07-20T12:43:25;2.72;;;1.00;;
41512;SDS011;27244;59.940;30.280;2023-07-20T12:45:52;2.25;;;0.80;;
41512;SDS011;27244;59.940;30.280;2023-07-20T12:48:20;5.10;;;1.20;;
41512;SDS011;27244;59.940;30.280;2023-07-20T12:50:48;2.00;;;1.02;;
41512;SDS011;27244;59.940;30.280;2023-07-20T12:53:15;5.20;;;1.05;;
41512;SDS011;27244;59.940;30.280;2023-07-20T12:55:43;1.20;;;0.68;;
41512;SDS011;27244;59.940;30.280;2023-07-20T12:58:11;3.42;;;1.02;;
41512;SDS011;27244;59.940;30.280;2023-07-20T13:00:39;2.00;;;1.00;;
41512;SDS011;27244;59.940;30.280;2023-07-20T13:03:06;2.15;;;1.00;;
41512;SDS011;27244;59.940;30.280;2023-07-20T13:05:34;4.82;;;1.23;;
41512;SDS011;27244;59.940;30.280;2023-07-20T13:08:03;3.72;;;1.00;;
41512;SDS011;27244;59.940;30.280;2023-07-20T13:10:31;3.45;;;1.00;;
41512;SDS011;27244;59.940;30.280;2023-07-20T13:12:59;2.58;;;0.77;;
41512;SDS011;27244;59.940;30.280;2023-07-20T13:15:29;2.63;;;0.88;;
41512;SDS011;27244;59.940;30.280;2023-07-20T13:17:58;2.00;;;0.93;;
41512;SDS011;27244;59.940;30.280;2023-07-20T13:20:25;2.38;;;0.80;;
41512;SDS011;27244;59.940;30.280;2023-07-20T13:22:53;1.50;;;0.90;;
41512;SDS011;27244;59.940;30.280;2023-07-20T13:25:22;1.45;;;0.77;;
41512;SDS011;27244;59.940;30.280;2023-07-20T13:27:49;3.05;;;1.05;;
41512;SDS011;27244;59.940;30.280;2023-07-20T13:30:16;3.33;;;1.08;;
41512;SDS011;27244;59.940;30.280;2023-07-20T13:32:43;1.95;;;0.98;;
41512;SDS011;27244;59.940;30.280;2023-07-20T13:35:11;1.90;;;0.90;;
41512;SDS011;27244;59.940;30.280;2023-07-20T13:37:38;1.90;;;0.70;;
41512;SDS011;27244;59.940;30.280;2023-07-20T13:40:06;2.67;;;0.75;;
41512;SDS011;27244;59.940;30.280;2023-07-20T13:45:08;2.67;;;0.88;;
41512;SDS011;27244;59.940;30.280;2023-07-20T13:47:35;2.83;;;0.88;;
41512;SDS011;27244;59.940;30.280;2023-07-20T13:50:03;3.55;;;1.10;;
41512;SDS011;27244;59.940;30.280;2023-07-20T13:52:33;3.78;;;0.75;;
41512;SDS011;27244;59.940;30.280;2023-07-20T13:55:19;1.85;;;0.95;;
41512;SDS011;27244;59.940;30.280;2023-07-20T13:57:47;1.30;;;0.82;;
41512;SDS011;27244;59.940;30.280;2023-07-20T14:00:16;1.15;;;0.60;;
41512;SDS011;27244;59.940;30.280;2023-07-20T14:02:43;1.45;;;0.70;;
41512;SDS011;27244;59.940;30.280;2023-07-20T14:05:10;2.22;;;0.98;;
41512;SDS011;27244;59.940;30.280;2023-07-20T14:07:37;2.03;;;0.63;;
41512;SDS011;27244;59.940;30.280;2023-07-20T14:10:05;1.80;;;0.80;;
41512;SDS011;27244;59.940;30.280;2023-07-20T14:12:32;3.25;;;0.77;;
41512;SDS011;27244;59.940;30.280;2023-07-20T14:15:01;1.35;;;0.80;;
41512;SDS011;27244;59.940;30.280;2023-07-20T14:17:29;3.33;;;1.05;;
41512;SDS011;27244;59.940;30.280;2023-07-20T14:19:56;2.35;;;0.70;;
41512;SDS011;27244;59.940;30.280;2023-07-20T14:22:23;1.08;;;0.65;;
41512;SDS011;27244;59.940;30.280;2023-07-20T14:24:50;1.15;;;0.60;;
41512;SDS011;27244;59.940;30.280;2023-07-20T14:27:17;1.67;;;0.70;;
41512;SDS011;27244;59.940;30.280;2023-07-20T14:29:44;1.33;;;0.77;;
41512;SDS011;27244;59.940;30.280;2023-07-20T14:32:13;2.80;;;1.45;;
41512;SDS011;27244;59.940;30.280;2023-07-20T14:34:40;1.40;;;0.90;;
41512;SDS011;27244;59.940;30.280;2023-07-20T14:37:07;3.67;;;0.90;;
41512;SDS011;27244;59.940;30.280;2023-07-20T14:39:34;4.70;;;1.35;;
41512;SDS011;27244;59.940;30.280;2023-07-20T14:42:01;1.58;;;1.00;;
41512;SDS011;27244;59.940;30.280;2023-07-20T14:44:29;2.15;;;1.02;;
41512;SDS011;27244;59.940;30.280;2023-07-20T14:46:56;2.75;;;1.05;;
41512;SDS011;27244;59.940;30.280;2023-07-20T14:49:24;2.38;;;0.95;;